neil on the web!

ADDS Results

2030 UTC 20 August 2019

EGJB 201950Z 31004KT CAVOK 14/11 Q1028
EGJB 201920Z 30005KT CAVOK 14/11 Q1027
EGJB 201850Z 30005KT CAVOK 15/11 Q1027
TAF EGJB 202003Z 2021/2106 30005KT CAVOK
EGJJ 202020Z 32003KT CAVOK 13/10 Q1028
EGJJ 201950Z 32004KT CAVOK 14/10 Q1028
EGJJ 201920Z 32004KT CAVOK 15/10 Q1027
EGJJ 201850Z 32004KT 290V350 CAVOK 16/11 Q1027
TAF EGJJ 202003Z 2021/2106 32005KT CAVOK
EGKK 202020Z 21002KT CAVOK 15/08 Q1026
EGKK 201950Z 21002KT CAVOK 15/08 Q1026
EGKK 201920Z VRB03KT CAVOK 16/08 Q1026
EGKK 201850Z 29005KT CAVOK 18/07 Q1025
TAF EGKK 201705Z 2018/2124 27010KT CAVOK
PROB40 2102/2106 4000 BR
BECMG 2103/2106 21006KT
EGSS 202020Z AUTO 25003KT 7000 NCD 14/06 Q1026
EGSS 201950Z AUTO 25002KT 9999 NCD 15/06 Q1025
EGSS 201920Z AUTO 26003KT 9999 NCD 16/06 Q1025
EGSS 201850Z AUTO 27005KT 9999 NCD 17/06 Q1025
TAF EGSS 201702Z 2018/2124 28010KT 9999 FEW040
PROB30 2102/2107 6000
BECMG 2103/2106 21004KT
EGGW 202020Z AUTO 23005KT 9999 NCD 13/08 Q1026
EGGW 201950Z AUTO 23007KT 9999 NCD 14/07 Q1025
EGGW 201920Z 24006KT CAVOK 14/07 Q1025
EGGW 201850Z AUTO 24007KT 9999 NCD 16/07 Q1025
TAF EGGW 201702Z 2018/2118 27010KT 9999 FEW040
BECMG 2103/2106 21005KT
PROB30 2103/2107 8000
EGSH 202020Z 27003KT CAVOK 15/08 Q1025
EGSH 201950Z 26002KT CAVOK 15/08 Q1025 NOSIG
EGSH 201920Z 28002KT CAVOK 16/08 Q1025 NOSIG
EGSH 201850Z 25004KT 9999 SCT047 16/09 Q1024 NOSIG
TAF EGSH 202000Z 2021/2024 21003KT 9999 FEW035
EGLC 202020Z AUTO 26005KT 210V280 9999 NCD 18/07 Q1026
EGLC 201950Z AUTO 28008KT 9999 NCD 19/07 Q1026
EGLC 201920Z AUTO 29007KT 9999 NCD 19/07 Q1025
EGLC 201850Z AUTO 29006KT 9999 NCD 20/07 Q1025
TAF EGLC 201704Z 2018/2103 26010KT CAVOK
EGMC 202020Z 28004KT CAVOK 14/06 Q1025
EGMC 201950Z 28003KT CAVOK 15/06 Q1025
EGMC 201920Z 27004KT CAVOK 16/06 Q1025
EGMC 201850Z 29006KT CAVOK 18/07 Q1025
TAF EGMC 201959Z 2021/2106 28005KT CAVOK
EGLL 202020Z AUTO 27009KT 9999 NCD 18/08 Q1026 NOSIG
EGLL 201950Z AUTO 26009KT 9999 NCD 18/07 Q1026
EGLL 201920Z AUTO 27008KT 9999 NCD 18/07 Q1026 NOSIG
EGLL 201850Z AUTO 28006KT 9999 NCD 18/07 Q1025 NOSIG
TAF EGLL 201659Z 2018/2124 27008KT 9999 FEW040
PROB30 2103/2107 8000
BECMG 2109/2112 20010KT
EGHI 202020Z VRB03KT CAVOK 15/10 Q1027
EGHI 201950Z VRB02KT CAVOK 15/08 Q1026
EGHI 201920Z VRB02KT CAVOK 17/07 Q1026
EGHI 201850Z 29004KT 260V320 CAVOK 18/07 Q1026
TAF EGHI 201700Z 2018/2022 28009KT 9999 FEW040
EGHH 202020Z 25002KT CAVOK 15/12 Q1027
EGHH 201950Z 26005KT 9999 FEW049 15/11 Q1026
EGHH 201920Z 26006KT 9999 FEW049 16/11 Q1026
EGHH 201850Z 25007KT 9999 FEW042 17/11 Q1026
TAF EGHH 202000Z 2021/2106 26002KT 9999 FEW040
BECMG 2100/2103 6000
TEMPO 2103/2106 3000 BR MIFG
PROB30 2104/2106 0300 FG VV///
EGCC 202020Z AUTO VRB02KT 3500 RA FEW031/// BKN038/// BKN044/// //////TCU 13/12
Q1024 RERA BECMG 9999
EGCC 201950Z AUTO 20006KT 160V240 5000 -RA BKN034/// //////TCU 14/12 Q1024 TEMPO
SHRA
EGCC 201920Z AUTO 22006KT 9999 -RA BKN042 15/11 Q1024 TEMPO SHRA
EGCC 201850Z AUTO 25007KT 9999 -RA BKN049 16/10 Q1023 TEMPO SHRA
TAF AMD EGCC 201955Z 2020/2124 25005KT 9999 SCT035
TEMPO 2020/2023 4000 SHRA BKN013
TEMPO 2108/2118 7000 SHRA
TEMPO 2118/2124 8000 -RA
PROB30
TEMPO 2120/2124 RA BKN014
EGNX 202020Z 26006KT CAVOK 15/09 Q1024
EGNX 201950Z 25007KT CAVOK 16/08 Q1024
EGNX 201920Z 24005KT 190V260 CAVOK 17/08 Q1024
EGNX 201850Z 27006KT 9999 FEW048 16/09 Q1024
TAF EGNX 201657Z 2018/2118 24007KT 9999 FEW040
PROB30
TEMPO 2019/2023 9000 -SHRA
TEMPO 2110/2116 7000 SHRA
EGGP 202020Z 15006KT 110V170 8000 -RADZ FEW008 BKN017 14/14 Q1023 RERA REDZ
EGGP 201950Z 13005KT 090V160 9000 4000W RADZ FEW008 SCT014 BKN020 14/13 Q1023
EGGP 201920Z 15004KT 110V190 6000 -RA FEW001 SCT017 BKN022 14/13 Q1024
EGGP 201850Z 17004KT 3500 RADZ HZ FEW027 SCT033 BKN038 15/13 Q1023
TAF AMD EGGP 201852Z 2019/2118 27010KT 9999 SCT035
BECMG 2019/2021 19007KT
PROB40
TEMPO 2019/2022 4000 SHRA BKN014
TEMPO 2108/2116 7000 SHRA
EGNM 202020Z 23003KT CAVOK 13/08 Q1023
EGNM 201950Z 24002KT CAVOK 14/08 Q1023
EGNM 201920Z 26004KT 230V290 CAVOK 14/07 Q1023
EGNM 201850Z VRB03KT CAVOK 14/07 Q1023
TAF EGNM 201702Z 2018/2118 26012KT 9999 SCT025
BECMG 2019/2022 20007KT
TEMPO 2019/2109 BKN014
PROB30
TEMPO 2019/2103 4500 SHRA
PROB30
TEMPO 2103/2109 BKN009
PROB40
TEMPO 2109/2118 6000 SHRA BKN014
EGBB 202020Z 23006KT 200V270 9999 BKN045 16/10 Q1025
EGBB 201950Z 25005KT 200V270 CAVOK 17/09 Q1025
EGBB 201920Z 26006KT 220V280 9999 BKN045 17/09 Q1024
EGBB 201850Z 26007KT CAVOK 17/09 Q1024
TAF EGBB 201657Z 2018/2118 24007KT 9999 FEW040
PROB30
TEMPO 2019/2023 9000 -SHRA
EGGD 202020Z AUTO 25008KT 9999 SCT048 14/11 Q1026
EGGD 201950Z AUTO 26009KT 9999 BKN046 14/11 Q1026
EGGD 201920Z AUTO 26010KT 9999 FEW030 15/11 Q1026
EGGD 201850Z AUTO 26008KT 9999 FEW046 15/11 Q1026
TAF EGGD 201702Z 2018/2118 27010KT 9999 FEW025
BECMG 2020/2023 19007KT
PROB30
TEMPO 2020/2102 4500 SHRA BKN012
BECMG 2112/2115 27010KT
EGFF 202020Z AUTO 27011KT 9999 SCT019/// SCT029/// //////TCU 16/12 Q1026
EGFF 201950Z AUTO 27012KT 9999 SCT020/// BKN027/// BKN047/// //////CB 16/12
Q1026
EGFF 201920Z AUTO 26012KT 9999 SCT019 16/12 Q1026
EGFF 201850Z AUTO 26012KT 9999 SCT021/// //////CB 16/12 Q1026
TAF EGFF 201657Z 2018/2118 24006KT 9999 FEW030
PROB30
TEMPO 2018/2102 8000 SHRA BKN014
PROB30
TEMPO 2102/2105 BKN014
EGTE 202020Z VRB02KT 9999 FEW040 15/11 Q1027
EGTE 201950Z 27004KT 9999 FEW040 16/11 Q1026
EGTE 201920Z 28007KT 9999 FEW045 16/11 Q1026
EGTE 201850Z 28006KT 9999 FEW045 18/11 Q1026
TAF EGTE 202000Z 2021/2103 21003KT 9999 FEW035
PROB30
TEMPO 2100/2103 8000
EGPF 202020Z AUTO 21006KT 9999 NCD 13/11 Q1021
EGPF 201950Z AUTO VRB03KT 9999 FEW049 13/11 Q1021
EGPF 201920Z AUTO 22008KT 9999 NCD 14/11 Q1020
EGPF 201850Z AUTO 22009KT 9999 NCD 15/11 Q1020
TAF EGPF 201656Z 2018/2118 23010KT 9999 SCT030
BECMG 2018/2021 VRB05KT
TEMPO 2023/2106 7000 RA BKN014
PROB30
TEMPO 2100/2107 BKN008
BECMG 2108/2111 21015G25KT
TEMPO 2113/2118 7000 RA
PROB40
TEMPO 2115/2118 22022G35KT
EGPH 202020Z VRB03KT CAVOK 11/08 Q1021
EGPH 201950Z 23004KT 200V260 CAVOK 13/09 Q1020
EGPH 201920Z 25004KT CAVOK 13/09 Q1020
EGPH 201850Z 26006KT CAVOK 15/09 Q1020
TAF EGPH 201656Z 2018/2118 25010KT 9999 SCT030
BECMG 2018/2021 VRB05KT
PROB30
TEMPO 2100/2108 7000 RA BKN014
BECMG 2106/2109 22010KT
TEMPO 2110/2118 22015G25KT
TEMPO 2114/2118 7000 RA
EGPK 202020Z 15005KT 9999 FEW025 14/11 Q1021
EGPK 201950Z 14005KT 9999 FEW025 14/11 Q1021
EGPK 201850Z 18009KT 9999 FEW022 16/11 Q1021
TAF EGPK 201656Z 2018/2118 24009KT 9999 FEW020 SCT030
BECMG 2018/2021 18010KT
TEMPO 2022/2106 7000 RA BKN010
PROB30
TEMPO 2100/2107 BKN008
TEMPO 2110/2118 18017G27KT
TEMPO 2113/2118 7000 RA
EHAM 202025Z 30003KT 250V340 CAVOK 15/12 Q1025 NOSIG
EHAM 201955Z 31003KT 280V350 9999 FEW030 15/11 Q1025 NOSIG
EHAM 201925Z 27006KT 9999 FEW027 15/11 Q1025 NOSIG
EHAM 201855Z 27006KT 9999 FEW029 16/11 Q1024 NOSIG
TAF EHAM 201707Z 2018/2124 27010KT 9999 FEW030
BECMG 2018/2020 20004KT
PROB30
TEMPO 2102/2106 7000 MIFG
BECMG 2113/2116 30008KT
BECMG 2116/2119 VRB03KT
LFLS 202000Z AUTO 35004KT CAVOK 14/12 Q1026
LFLS 201930Z AUTO 36004KT 330V030 CAVOK 14/12 Q1026
LFLS 201900Z AUTO 35008KT 9999 FEW026 SCT110 14/12 Q1025 NOSIG
TAF LFLS 201400Z 2015/2115 VRB03KT 6000 -RA SCT020 OVC060
TEMPO 2015/2016 4000 RA BKN012 OVC040
BECMG 2016/2018 9999 NSW BKN030
BECMG 2021/2023 2000 BR BKN003
PROB40 2100/2107 0600 FG VV///
BECMG 2107/2109 36008KT 9999 NSW SCT020
BECMG 2109/2112 CAVOK
LFLL 202000Z 36004KT 9999 FEW010 15/14 Q1026 NOSIG
LFLL 201930Z 36004KT CAVOK 16/15 Q1026 NOSIG
LFLL 201900Z 35004KT CAVOK 16/15 Q1026 NOSIG
TAF LFLL 201700Z 2018/2124 36006KT 9999 FEW008 BKN100
BECMG 2018/2020 CAVOK
PROB40
TEMPO 2023/2103 2000 BR
TEMPO 2103/2109 VRB02KT 1200 BR BKN003
PROB40 2103/2107 0400 FG VV///
LFLC 202000Z AUTO 24003KT 180V270 CAVOK 14/10 Q1026 NOSIG
LFLC 201930Z AUTO 15003KT CAVOK 14/10 Q1026 NOSIG
LFLC 201900Z AUTO 00000KT 9999 2400 NSC 16/10 Q1026 NOSIG
TAF LFLC 202000Z 2021/2121 16003KT 9999 FEW060
PROB40 2102/2107 4000 MIFG
BECMG 2109/2111 02010KT
BECMG 2119/2121 VRB02KT
LFRD 202000Z AUTO 36003KT CAVOK 14/11 Q1028 NOSIG
LFRD 201930Z AUTO 36004KT CAVOK 14/11 Q1028 NOSIG
LFRD 201900Z AUTO 36005KT CAVOK 15/11 Q1027 NOSIG
TAF LFRD 201700Z 2018/2118 32010KT 9999 SCT020
BECMG 2020/2022 VRB03KT
TEMPO 2102/2106 0800 BCFG
BECMG 2112/2115 35007KT
LFRC 202000Z AUTO 25005KT CAVOK 11/10 Q1028
LFRC 201930Z AUTO 26005KT CAVOK 12/10 Q1028
LFRC 201900Z AUTO 28004KT CAVOK 14/11 Q1027
TAF LFRC 201400Z 2015/2024 27010KT 9999 SCT025
BECMG 2018/2021 VRB03KT
VHHH 202000Z 10007KT 9999 FEW028 27/25 Q1005 NOSIG
VHHH 201930Z 11007KT 9000 -SHRA FEW022 26/25 Q1005 NOSIG
VHHH 201919Z 09007KT 7000 -SHRA FEW022 26/25 Q1005 NOSIG
VHHH 201900Z 07012KT 6000 FEW035 26/25 Q1005 NOSIG
TAF VHHH 201700Z 2018/2124 11010KT 9999 FEW025 TX33/2106Z TN28/2022Z TN28/2122Z
TEMPO 2020/2103 VRB05KT 4000 SHRA FEW012CB SCT025
TEMPO 2103/2110 24010KT
TEMPO 2107/2113 4000 SHRA FEW012CB SCT025
TEMPO 2115/2124 VRB05KT